createdAt,value
2023-04-30T00:01:00.892Z,79.03
2023-04-30T00:03:27.493Z,79.02
2023-04-30T00:05:54.082Z,79.17
2023-04-30T00:08:20.660Z,79.47
2023-04-30T00:10:47.807Z,79.30
2023-04-30T00:13:14.321Z,79.09
2023-04-30T00:15:41.536Z,79.28
2023-04-30T00:18:08.176Z,79.70
2023-04-30T00:20:35.648Z,79.05
2023-04-30T00:23:02.419Z,79.97
2023-04-30T00:25:28.914Z,80.08
2023-04-30T00:27:55.469Z,80.09
2023-04-30T00:30:21.931Z,79.90
2023-04-30T00:32:55.701Z,79.67
2023-04-30T00:35:22.199Z,80.42
2023-04-30T00:37:48.859Z,79.46
2023-04-30T00:40:16.734Z,80.41
2023-04-30T00:42:43.273Z,80.42
2023-04-30T00:45:10.258Z,80.15
2023-04-30T00:47:37.097Z,80.23
2023-04-30T00:50:10.301Z,80.39
2023-04-30T00:52:36.828Z,80.24
2023-04-30T00:55:03.677Z,79.79
2023-04-30T00:57:30.499Z,80.14
2023-04-30T00:59:57.074Z,80.55
2023-04-30T01:02:23.925Z,80.02
2023-04-30T01:04:50.635Z,79.84
2023-04-30T01:07:17.144Z,79.91
2023-04-30T01:09:43.534Z,79.75
2023-04-30T01:13:01.066Z,79.95
2023-04-30T01:15:36.494Z,80.81
2023-04-30T01:18:13.256Z,80.93
2023-04-30T01:20:48.716Z,80.94
2023-04-30T01:23:29.860Z,80.57
2023-04-30T01:26:15.350Z,80.60
2023-04-30T01:28:45.933Z,81.51
2023-04-30T01:31:14.636Z,82.07
2023-04-30T01:33:41.157Z,81.70
2023-04-30T01:36:24.770Z,81.99
2023-04-30T01:38:55.007Z,82.27
2023-04-30T01:41:47.146Z,82.15
2023-04-30T01:44:54.919Z,82.03
2023-04-30T01:47:50.757Z,81.80
2023-04-30T01:50:41.645Z,82.29
2023-04-30T01:53:13.853Z,82.51
2023-04-30T01:55:45.798Z,82.02
2023-04-30T01:58:16.590Z,82.36
2023-04-30T02:00:43.084Z,82.54
2023-04-30T02:03:09.616Z,82.40
2023-04-30T02:05:36.201Z,82.85
2023-04-30T02:08:03.337Z,82.60
2023-04-30T02:10:30.712Z,81.97
2023-04-30T02:12:57.286Z,82.11
2023-04-30T02:15:23.816Z,82.35
2023-04-30T02:17:51.930Z,82.91
2023-04-30T02:20:18.700Z,82.77
2023-04-30T02:22:45.732Z,82.41
2023-04-30T02:25:14.083Z,82.26
2023-04-30T02:27:40.686Z,82.69
2023-04-30T02:30:07.871Z,82.38
2023-04-30T02:32:34.785Z,82.89
2023-04-30T02:35:01.588Z,82.95
2023-04-30T02:37:28.110Z,83.11
2023-04-30T02:39:54.956Z,83.72
2023-04-30T02:42:21.770Z,83.50
2023-04-30T02:44:48.232Z,83.86
2023-04-30T02:47:15.137Z,83.67
2023-04-30T02:49:41.721Z,83.55
2023-04-30T02:52:09.962Z,83.73
2023-04-30T02:54:36.796Z,83.59
2023-04-30T02:57:03.606Z,83.44
2023-04-30T02:59:30.330Z,83.94
2023-04-30T03:01:56.839Z,83.96
2023-04-30T03:04:23.506Z,84.16
2023-04-30T03:06:50.308Z,83.62
2023-04-30T03:09:16.899Z,83.62
2023-04-30T03:11:43.345Z,83.79
2023-04-30T03:14:09.804Z,83.29
2023-04-30T03:16:36.647Z,83.70
2023-04-30T03:19:03.331Z,83.59
2023-04-30T03:21:29.950Z,83.45
2023-04-30T03:23:56.432Z,83.71
2023-04-30T03:26:23.729Z,84.06
2023-04-30T03:28:50.272Z,84.02
2023-04-30T03:31:16.939Z,83.94
2023-04-30T03:33:43.552Z,83.96
2023-04-30T03:36:10.134Z,84.04
2023-04-30T03:38:36.564Z,83.75
2023-04-30T03:41:03.920Z,83.78
2023-04-30T03:43:30.634Z,83.72
2023-04-30T03:45:57.551Z,83.79
2023-04-30T03:48:25.276Z,83.72
2023-04-30T03:50:51.819Z,84.26
2023-04-30T03:53:18.258Z,83.68
2023-04-30T03:55:45.090Z,83.92
2023-04-30T03:58:11.554Z,84.05
2023-04-30T04:00:41.700Z,83.67
2023-04-30T04:03:08.602Z,83.85
2023-04-30T04:05:35.304Z,84.09
2023-04-30T04:08:01.863Z,84.13
2023-04-30T04:10:29.244Z,84.00
2023-04-30T04:12:55.685Z,84.55
2023-04-30T04:15:22.260Z,84.69
2023-04-30T04:17:49.025Z,84.88
2023-04-30T04:20:15.581Z,84.20
2023-04-30T04:22:43.010Z,84.44
2023-04-30T04:25:10.421Z,84.59
2023-04-30T04:27:37.456Z,84.71
2023-04-30T04:30:04.259Z,84.40
2023-04-30T04:32:32.717Z,84.74
2023-04-30T04:35:00.741Z,84.19
2023-04-30T04:37:27.375Z,84.47
2023-04-30T04:39:53.946Z,84.52
2023-04-30T04:42:20.581Z,84.78
2023-04-30T04:44:47.522Z,85.05
2023-04-30T04:47:14.061Z,85.20
2023-04-30T04:49:41.235Z,85.21
2023-04-30T04:52:08.494Z,85.22
2023-04-30T04:54:35.048Z,85.02
2023-04-30T04:57:02.999Z,85.07
2023-04-30T04:59:29.800Z,85.08
2023-04-30T05:01:56.629Z,85.22
2023-04-30T05:04:23.158Z,85.42
2023-04-30T05:06:49.634Z,85.03
2023-04-30T05:09:16.393Z,85.18
2023-04-30T05:11:43.819Z,85.37
2023-04-30T05:14:10.341Z,85.69
2023-04-30T05:16:36.905Z,85.82
2023-04-30T05:19:03.605Z,86.12
2023-04-30T05:21:30.057Z,86.07
2023-04-30T05:23:58.842Z,86.45
2023-04-30T05:26:26.532Z,86.17
2023-04-30T05:28:53.137Z,86.49
2023-04-30T05:31:21.100Z,86.24
2023-04-30T05:33:47.995Z,87.00
2023-04-30T05:36:14.572Z,86.71
2023-04-30T05:38:41.115Z,86.85
2023-04-30T05:41:07.915Z,86.25
2023-04-30T05:43:34.628Z,86.29
2023-04-30T05:46:01.145Z,86.14
2023-04-30T05:48:27.741Z,86.09
2023-04-30T05:50:54.237Z,86.21
2023-04-30T05:53:20.784Z,86.47
2023-04-30T05:55:47.240Z,85.95
2023-04-30T05:58:13.771Z,85.94
2023-04-30T06:00:40.313Z,85.66
2023-04-30T06:03:07.733Z,85.31
2023-04-30T06:05:34.442Z,85.38
2023-04-30T06:08:01.054Z,84.86
2023-04-30T06:10:27.879Z,85.47
2023-04-30T06:12:54.473Z,85.12
2023-04-30T06:15:21.986Z,85.44
2023-04-30T06:17:48.454Z,84.35
2023-04-30T06:20:15.867Z,84.13
2023-04-30T06:22:42.332Z,83.01
2023-04-30T06:25:09.294Z,82.52
2023-04-30T06:27:35.792Z,81.35
2023-04-30T06:30:02.346Z,77.65
2023-04-30T06:32:28.949Z,73.22
2023-04-30T06:34:55.850Z,69.91
2023-04-30T06:37:22.412Z,67.55
2023-04-30T06:39:51.940Z,65.41
2023-04-30T06:42:18.609Z,64.36
2023-04-30T06:44:46.023Z,64.80
2023-04-30T06:47:12.843Z,64.24
2023-04-30T06:49:39.292Z,65.15
2023-04-30T06:52:05.781Z,66.66
2023-04-30T06:54:35.369Z,66.27
2023-04-30T06:57:01.912Z,66.48
2023-04-30T06:59:29.998Z,63.72
2023-04-30T07:01:56.450Z,61.86
2023-04-30T07:04:24.491Z,61.01
2023-04-30T07:06:51.438Z,60.41
2023-04-30T07:09:18.105Z,59.92
2023-04-30T07:11:45.210Z,59.41
2023-04-30T07:14:11.662Z,57.62
2023-04-30T07:16:38.119Z,58.64
2023-04-30T07:19:04.568Z,57.31
2023-04-30T07:21:32.757Z,57.63
2023-04-30T07:23:59.513Z,55.72
2023-04-30T07:26:26.486Z,55.41
2023-04-30T07:28:53.162Z,55.45
2023-04-30T07:31:20.204Z,53.26
2023-04-30T07:33:47.237Z,53.29
2023-04-30T07:36:13.818Z,52.75
2023-04-30T07:38:40.298Z,52.38
2023-04-30T07:41:08.141Z,51.44
2023-04-30T07:43:34.675Z,50.12
2023-04-30T07:46:01.320Z,51.32
2023-04-30T07:48:27.954Z,52.73
2023-04-30T07:50:54.408Z,51.17
2023-04-30T07:53:20.821Z,48.97
2023-04-30T07:55:47.454Z,48.71
2023-04-30T07:58:13.966Z,48.87
2023-04-30T08:00:43.135Z,49.01
2023-04-30T08:03:09.656Z,49.97
2023-04-30T08:05:36.245Z,49.38
2023-04-30T08:08:03.507Z,50.06
2023-04-30T08:10:30.006Z,48.80
2023-04-30T08:12:56.425Z,49.50
2023-04-30T08:15:22.972Z,48.62
2023-04-30T08:17:50.944Z,48.33
2023-04-30T08:20:17.627Z,47.90
2023-04-30T08:22:44.950Z,50.43
2023-04-30T08:25:14.578Z,46.81
2023-04-30T08:27:41.185Z,46.74
2023-04-30T08:30:08.076Z,45.40
2023-04-30T08:32:38.281Z,46.22
2023-04-30T08:35:05.786Z,46.41
2023-04-30T08:37:33.350Z,45.14
2023-04-30T08:40:00.279Z,44.22
2023-04-30T08:42:31.714Z,44.50
2023-04-30T08:45:01.578Z,42.71
2023-04-30T08:47:28.515Z,44.31
2023-04-30T08:49:55.300Z,45.54
2023-04-30T08:52:22.319Z,44.21
2023-04-30T08:54:51.388Z,44.19
2023-04-30T08:57:18.854Z,41.92
2023-04-30T08:59:47.265Z,40.49
2023-04-30T09:02:14.437Z,38.68
2023-04-30T09:04:40.953Z,39.61
2023-04-30T09:07:09.483Z,40.27
2023-04-30T09:09:39.654Z,41.16
2023-04-30T09:12:19.591Z,42.53
2023-04-30T09:15:13.333Z,41.64
2023-04-30T09:17:40.076Z,42.41
2023-04-30T09:20:08.149Z,39.80
2023-04-30T09:22:35.833Z,40.44
2023-04-30T09:25:02.814Z,40.92
2023-04-30T09:27:29.309Z,40.64
2023-04-30T09:29:56.588Z,40.47
2023-04-30T09:32:23.391Z,38.48
2023-04-30T09:34:50.216Z,40.24
2023-04-30T09:37:19.849Z,38.83
2023-04-30T09:39:55.039Z,39.05
2023-04-30T09:42:22.312Z,38.56
2023-04-30T09:44:48.923Z,39.74
2023-04-30T09:47:19.920Z,37.72
2023-04-30T09:49:52.346Z,37.37
2023-04-30T09:52:20.027Z,37.65
2023-04-30T09:54:47.826Z,37.59
2023-04-30T09:57:15.970Z,36.47
2023-04-30T09:59:46.876Z,36.62
2023-04-30T10:02:17.120Z,36.77
2023-04-30T10:04:55.755Z,37.19
2023-04-30T10:07:27.134Z,35.10
2023-04-30T10:10:08.385Z,36.41
2023-04-30T10:12:51.322Z,35.76
2023-04-30T10:15:27.193Z,35.51
2023-04-30T10:18:02.261Z,36.29
2023-04-30T10:20:31.950Z,34.55
2023-04-30T10:22:59.841Z,34.77
2023-04-30T10:25:32.397Z,37.61
2023-04-30T10:27:59.096Z,35.63
2023-04-30T10:30:26.156Z,35.25
2023-04-30T10:32:55.790Z,35.06
2023-04-30T10:35:26.216Z,35.70
2023-04-30T10:38:03.661Z,35.00
2023-04-30T10:40:36.979Z,35.49
2023-04-30T10:43:03.541Z,36.86
2023-04-30T10:45:43.637Z,34.09
2023-04-30T10:48:10.399Z,35.66
2023-04-30T10:50:45.951Z,34.39
2023-04-30T10:53:19.807Z,33.35
2023-04-30T10:56:13.376Z,34.50
2023-04-30T10:58:40.765Z,33.82
2023-04-30T11:01:17.503Z,34.20
2023-04-30T11:04:06.275Z,33.63
2023-04-30T11:06:51.561Z,33.80
2023-04-30T11:09:18.542Z,33.81
2023-04-30T11:11:45.914Z,33.55
2023-04-30T11:14:20.649Z,34.73
2023-04-30T11:16:53.541Z,33.27
2023-04-30T11:19:22.761Z,34.52
2023-04-30T11:22:04.341Z,33.11
2023-04-30T11:24:49.649Z,34.10
2023-04-30T11:27:22.052Z,34.93
2023-04-30T11:29:51.667Z,33.28
2023-04-30T11:32:22.978Z,34.24
2023-04-30T11:34:51.052Z,35.16
2023-04-30T11:37:24.498Z,32.85
2023-04-30T11:39:51.223Z,34.10
2023-04-30T11:42:21.475Z,33.21
2023-04-30T11:44:48.128Z,33.79
2023-04-30T11:47:17.939Z,34.41
2023-04-30T11:49:44.497Z,35.09
2023-04-30T11:52:14.025Z,34.50
2023-04-30T11:54:40.487Z,34.37
2023-04-30T11:57:06.981Z,34.58
2023-04-30T11:59:42.158Z,37.42
2023-04-30T12:02:10.009Z,35.43
2023-04-30T12:04:38.546Z,35.85
2023-04-30T12:07:08.141Z,35.06
2023-04-30T12:09:51.851Z,35.84
2023-04-30T12:12:29.680Z,36.58
2023-04-30T12:14:56.321Z,35.78
2023-04-30T12:17:32.636Z,36.90
2023-04-30T12:20:00.654Z,35.58
2023-04-30T12:22:28.097Z,38.20
2023-04-30T12:24:55.652Z,36.04
2023-04-30T12:27:22.580Z,36.60
2023-04-30T12:29:50.755Z,35.67
2023-04-30T12:32:22.031Z,35.67
2023-04-30T12:34:48.826Z,38.38
2023-04-30T12:37:16.823Z,35.52
2023-04-30T12:39:43.627Z,36.41
2023-04-30T12:42:11.473Z,36.53
2023-04-30T12:44:44.704Z,36.79
2023-04-30T12:47:11.301Z,36.60
2023-04-30T12:49:37.782Z,36.02
2023-04-30T12:52:09.624Z,38.21
2023-04-30T12:54:38.291Z,36.77
2023-04-30T12:57:09.462Z,36.22
2023-04-30T12:59:56.312Z,35.65
2023-04-30T13:02:24.964Z,34.86
2023-04-30T13:04:52.686Z,36.32
2023-04-30T13:07:21.063Z,36.20
2023-04-30T13:09:48.561Z,35.26
2023-04-30T13:12:15.275Z,35.67
2023-04-30T13:14:41.762Z,36.10
2023-04-30T13:17:09.802Z,37.46
2023-04-30T13:19:36.303Z,35.93
2023-04-30T13:22:03.283Z,36.11
2023-04-30T13:24:31.158Z,35.14
2023-04-30T13:27:02.097Z,34.02
2023-04-30T13:29:28.584Z,36.01
2023-04-30T13:31:55.103Z,34.75
2023-04-30T13:34:21.728Z,34.94
2023-04-30T13:36:48.592Z,34.68
2023-04-30T13:39:15.149Z,35.10
2023-04-30T13:41:43.126Z,35.92
2023-04-30T13:44:10.412Z,35.73
2023-04-30T13:46:36.882Z,36.29
2023-04-30T13:49:03.600Z,35.45
2023-04-30T13:51:30.027Z,34.96
2023-04-30T13:53:56.975Z,34.01
2023-04-30T13:56:23.999Z,34.20
2023-04-30T13:58:52.087Z,35.05
2023-04-30T14:01:18.635Z,35.17
2023-04-30T14:03:46.622Z,35.04
2023-04-30T14:06:13.925Z,35.88
2023-04-30T14:08:40.378Z,36.05
2023-04-30T14:11:06.851Z,35.95
2023-04-30T14:13:33.482Z,35.50
2023-04-30T14:16:00.385Z,35.00
2023-04-30T14:18:26.880Z,34.75
2023-04-30T14:20:53.357Z,35.13
2023-04-30T14:23:19.987Z,35.89
2023-04-30T14:25:46.523Z,36.86
2023-04-30T14:28:13.135Z,38.06
2023-04-30T14:30:39.628Z,36.86
2023-04-30T14:33:06.355Z,37.06
2023-04-30T14:35:33.428Z,37.32
2023-04-30T14:37:59.869Z,37.67
2023-04-30T14:40:26.434Z,35.41
2023-04-30T14:42:52.833Z,35.83
2023-04-30T14:45:20.583Z,36.36
2023-04-30T14:47:47.099Z,35.38
2023-04-30T14:50:13.973Z,36.66
2023-04-30T14:52:40.546Z,37.60
2023-04-30T14:55:07.325Z,37.07
2023-04-30T14:57:34.605Z,36.90
2023-04-30T15:00:01.749Z,36.98
2023-04-30T15:02:28.380Z,38.46
2023-04-30T15:04:54.941Z,36.96
2023-04-30T15:07:24.242Z,37.23
2023-04-30T15:09:50.834Z,37.23
2023-04-30T15:12:17.433Z,38.18
2023-04-30T15:14:44.463Z,37.86
2023-04-30T15:17:11.303Z,37.99
2023-04-30T15:19:37.789Z,37.63
2023-04-30T15:22:04.308Z,38.28
2023-04-30T15:24:30.714Z,38.88
2023-04-30T15:26:57.499Z,38.25
2023-04-30T15:29:24.700Z,38.21
2023-04-30T15:31:54.388Z,38.90
2023-04-30T15:34:22.083Z,37.48
2023-04-30T15:37:09.673Z,38.34
2023-04-30T15:39:36.157Z,37.49
2023-04-30T15:42:03.287Z,37.94
2023-04-30T15:44:29.856Z,39.84
2023-04-30T15:46:56.699Z,38.53
2023-04-30T15:49:23.260Z,39.08
2023-04-30T15:51:51.365Z,39.07
2023-04-30T15:54:18.120Z,39.10
2023-04-30T15:56:44.764Z,39.65
2023-04-30T15:59:11.448Z,38.29
2023-04-30T16:01:37.958Z,38.26
2023-04-30T16:04:04.784Z,38.87
2023-04-30T16:06:32.115Z,39.13
2023-04-30T16:08:59.123Z,40.47
2023-04-30T16:11:25.578Z,40.35
2023-04-30T16:13:52.127Z,40.53
2023-04-30T16:16:18.772Z,40.42
2023-04-30T16:18:45.412Z,41.49
2023-04-30T16:21:12.500Z,40.98
2023-04-30T16:23:39.905Z,40.68
2023-04-30T16:26:06.390Z,41.47
2023-04-30T16:28:32.837Z,41.84
2023-04-30T16:31:00.333Z,41.02
2023-04-30T16:33:26.827Z,41.20
2023-04-30T16:35:54.424Z,41.58
2023-04-30T16:38:22.030Z,42.34
2023-04-30T16:40:49.099Z,41.83
2023-04-30T16:43:16.223Z,42.81
2023-04-30T16:45:42.893Z,43.06
2023-04-30T16:48:09.548Z,42.51
2023-04-30T16:50:36.203Z,43.09
2023-04-30T16:53:02.847Z,42.62
2023-04-30T16:55:29.422Z,43.11
2023-04-30T16:57:55.896Z,41.95
2023-04-30T17:00:26.521Z,42.22
2023-04-30T17:02:53.546Z,43.13
2023-04-30T17:05:21.299Z,42.74
2023-04-30T17:07:49.223Z,42.12
2023-04-30T17:10:17.335Z,42.01
2023-04-30T17:12:44.282Z,43.16
2023-04-30T17:15:11.446Z,42.25
2023-04-30T17:17:37.920Z,43.22
2023-04-30T17:20:04.736Z,43.65
2023-04-30T17:22:31.424Z,43.70
2023-04-30T17:24:59.688Z,44.33
2023-04-30T17:27:27.552Z,44.67
2023-04-30T17:29:54.665Z,45.07
2023-04-30T17:32:21.573Z,45.25
2023-04-30T17:34:48.113Z,45.66
2023-04-30T17:37:17.641Z,44.97
2023-04-30T17:39:44.206Z,45.32
2023-04-30T17:42:10.746Z,45.33
2023-04-30T17:44:38.791Z,45.46
2023-04-30T17:47:06.153Z,45.55
2023-04-30T17:49:32.832Z,44.90
2023-04-30T17:52:01.236Z,45.69
2023-04-30T17:54:30.987Z,45.67
2023-04-30T17:56:59.191Z,46.25
2023-04-30T17:59:27.773Z,45.94
2023-04-30T18:01:56.782Z,46.25
2023-04-30T18:04:24.669Z,46.29
2023-04-30T18:06:51.454Z,46.75
2023-04-30T18:09:18.494Z,47.19
2023-04-30T18:11:45.207Z,47.54
2023-04-30T18:14:11.802Z,48.04
2023-04-30T18:16:38.339Z,48.39
2023-04-30T18:19:05.398Z,48.36
2023-04-30T18:21:32.200Z,48.72
2023-04-30T18:23:58.611Z,48.66
2023-04-30T18:26:25.280Z,49.04
2023-04-30T18:28:52.218Z,49.33
2023-04-30T18:31:19.017Z,49.95
2023-04-30T18:33:45.446Z,50.47
2023-04-30T18:36:14.611Z,49.70
2023-04-30T18:38:42.160Z,49.90
2023-04-30T18:41:08.682Z,50.32
2023-04-30T18:43:37.540Z,50.04
2023-04-30T18:46:05.765Z,51.07
2023-04-30T18:48:32.559Z,50.98
2023-04-30T18:50:59.043Z,50.57
2023-04-30T18:53:25.614Z,50.97
2023-04-30T18:55:52.412Z,50.86
2023-04-30T18:58:19.102Z,51.03
2023-04-30T19:00:45.614Z,51.09
2023-04-30T19:03:12.573Z,51.51
2023-04-30T19:05:39.087Z,51.76
2023-04-30T19:08:05.631Z,52.39
2023-04-30T19:10:33.766Z,51.39
2023-04-30T19:13:04.071Z,51.53
2023-04-30T19:15:30.888Z,52.86
2023-04-30T19:17:57.754Z,54.90
2023-04-30T19:20:24.388Z,52.58
2023-04-30T19:22:50.832Z,53.89
2023-04-30T19:25:17.853Z,52.70
2023-04-30T19:27:44.742Z,53.50
2023-04-30T19:30:12.007Z,55.78
2023-04-30T19:32:39.436Z,55.38
2023-04-30T19:35:06.551Z,53.41
2023-04-30T19:37:33.156Z,55.14
2023-04-30T19:39:59.714Z,56.50
2023-04-30T19:42:26.205Z,54.17
2023-04-30T19:44:55.327Z,56.21
2023-04-30T19:47:23.261Z,54.15
2023-04-30T19:49:49.737Z,56.87
2023-04-30T19:52:16.221Z,56.95
2023-04-30T19:54:49.529Z,56.92
2023-04-30T19:57:17.355Z,56.26
2023-04-30T19:59:44.033Z,57.90
2023-04-30T20:02:10.760Z,56.83
2023-04-30T20:04:37.333Z,56.96
2023-04-30T20:07:04.434Z,57.07
2023-04-30T20:09:31.117Z,57.01
2023-04-30T20:11:57.718Z,57.85
2023-04-30T20:14:24.322Z,57.49
2023-04-30T20:16:54.857Z,58.28
2023-04-30T20:19:22.059Z,58.93
2023-04-30T20:21:52.167Z,59.69
2023-04-30T20:24:19.134Z,58.60
2023-04-30T20:26:45.608Z,59.28
2023-04-30T20:29:13.166Z,59.86
2023-04-30T20:31:40.325Z,60.85
2023-04-30T20:34:07.282Z,60.96
2023-04-30T20:36:33.844Z,61.05
2023-04-30T20:39:00.366Z,61.72
2023-04-30T20:41:27.293Z,62.11
2023-04-30T20:43:54.089Z,62.81
2023-04-30T20:46:22.803Z,62.73
2023-04-30T20:48:49.550Z,62.71
2023-04-30T20:51:16.115Z,62.91
2023-04-30T20:53:42.597Z,62.92
2023-04-30T20:56:09.120Z,63.16
2023-04-30T20:58:35.713Z,63.42
2023-04-30T21:01:02.253Z,64.28
2023-04-30T21:03:28.758Z,64.11
2023-04-30T21:05:55.428Z,64.43
2023-04-30T21:08:22.002Z,64.82
2023-04-30T21:10:50.436Z,65.11
2023-04-30T21:13:18.408Z,64.92
2023-04-30T21:15:46.464Z,64.11
2023-04-30T21:18:13.030Z,64.17
2023-04-30T21:20:39.458Z,64.70
2023-04-30T21:23:05.963Z,64.66
2023-04-30T21:25:32.401Z,64.59
2023-04-30T21:27:58.923Z,65.29
2023-04-30T21:30:26.423Z,64.87
2023-04-30T21:32:58.090Z,65.25
2023-04-30T21:35:25.687Z,65.44
2023-04-30T21:37:52.184Z,66.02
2023-04-30T21:40:18.775Z,66.21
2023-04-30T21:42:45.367Z,66.64
2023-04-30T21:45:11.848Z,67.06
2023-04-30T21:47:38.387Z,66.66
2023-04-30T21:50:05.670Z,66.71
2023-04-30T21:52:32.949Z,66.14
2023-04-30T21:55:00.213Z,66.51
2023-04-30T21:57:26.604Z,66.58
2023-04-30T21:59:53.195Z,67.33
2023-04-30T22:02:24.178Z,66.83
2023-04-30T22:04:51.184Z,67.08
2023-04-30T22:07:17.691Z,67.23
2023-04-30T22:09:44.849Z,67.77
2023-04-30T22:12:11.523Z,67.82
2023-04-30T22:14:38.169Z,67.58
2023-04-30T22:17:04.613Z,68.54
2023-04-30T22:19:31.309Z,68.05
2023-04-30T22:21:57.773Z,68.55
2023-04-30T22:24:24.748Z,68.43
2023-04-30T22:26:51.224Z,68.65
2023-04-30T22:29:17.884Z,69.45
2023-04-30T22:31:44.370Z,69.16
2023-04-30T22:34:11.492Z,69.21
2023-04-30T22:36:38.012Z,69.25
2023-04-30T22:39:04.566Z,68.74
2023-04-30T22:41:34.145Z,68.74
2023-04-30T22:44:01.129Z,68.86
2023-04-30T22:46:27.696Z,69.15
2023-04-30T22:48:55.257Z,68.86
2023-04-30T22:51:22.011Z,69.47
2023-04-30T22:53:48.660Z,69.25
2023-04-30T22:56:18.186Z,69.42
2023-04-30T22:58:44.596Z,69.78
2023-04-30T23:01:11.199Z,69.52
2023-04-30T23:03:38.651Z,69.77
2023-04-30T23:06:05.395Z,69.88
2023-04-30T23:08:32.208Z,70.23
2023-04-30T23:10:58.750Z,70.21
2023-04-30T23:13:25.272Z,70.65
2023-04-30T23:15:51.735Z,70.37
2023-04-30T23:18:18.926Z,70.54
2023-04-30T23:20:45.809Z,70.72
2023-04-30T23:23:13.379Z,71.07
2023-04-30T23:25:39.847Z,70.79
2023-04-30T23:28:06.322Z,71.18
2023-04-30T23:30:32.950Z,71.11
2023-04-30T23:33:01.256Z,70.81
2023-04-30T23:35:27.746Z,70.77
2023-04-30T23:37:54.171Z,70.74
2023-04-30T23:40:23.311Z,71.11
2023-04-30T23:42:49.816Z,71.48
2023-04-30T23:45:16.419Z,71.55
2023-04-30T23:47:43.014Z,71.35
2023-04-30T23:50:09.897Z,71.65
2023-04-30T23:52:36.802Z,71.77
2023-04-30T23:55:03.908Z,71.50
2023-04-30T23:57:30.326Z,72.01
2023-04-30T23:59:57.146Z,71.94
